createdAt,value
2018-08-06T00:01:41.764Z,51.73
2018-08-06T00:04:11.556Z,51.93
2018-08-06T00:06:40.826Z,51.54
2018-08-06T00:09:10.051Z,51.85
2018-08-06T00:11:39.728Z,52.26
2018-08-06T00:14:08.801Z,52.17
2018-08-06T00:16:38.225Z,51.57
2018-08-06T00:19:07.460Z,51.27
2018-08-06T00:21:36.720Z,52.23
2018-08-06T00:24:06.165Z,52.11
2018-08-06T00:26:35.358Z,51.90
2018-08-06T00:29:04.868Z,52.68
2018-08-06T00:31:34.008Z,52.81
2018-08-06T00:34:03.215Z,52.51
2018-08-06T00:36:32.988Z,53.01
2018-08-06T00:39:02.333Z,52.92
2018-08-06T00:41:31.431Z,52.83
2018-08-06T00:44:00.624Z,52.23
2018-08-06T00:46:29.968Z,52.80
2018-08-06T00:48:59.378Z,52.48
2018-08-06T00:51:28.538Z,52.81
2018-08-06T00:53:58.248Z,53.04
2018-08-06T00:56:27.808Z,53.27
2018-08-06T00:58:57.081Z,53.08
2018-08-06T01:01:26.528Z,53.14
2018-08-06T01:03:56.045Z,53.05
2018-08-06T01:06:25.285Z,53.46
2018-08-06T01:08:54.368Z,54.11
2018-08-06T01:11:23.592Z,53.97
2018-08-06T01:13:53.121Z,54.10
2018-08-06T01:16:22.346Z,53.76
2018-08-06T01:18:51.561Z,54.92
2018-08-06T01:21:20.764Z,54.75
2018-08-06T01:23:50.026Z,54.93
2018-08-06T01:26:19.277Z,54.20
2018-08-06T01:28:48.501Z,54.74
2018-08-06T01:31:17.768Z,54.17
2018-08-06T01:33:47.081Z,54.85
2018-08-06T01:36:16.433Z,54.61
2018-08-06T01:38:45.798Z,54.66
2018-08-06T01:41:15.123Z,55.07
2018-08-06T01:43:45.104Z,54.74
2018-08-06T01:46:14.444Z,54.81
2018-08-06T01:48:43.922Z,55.18
2018-08-06T01:51:13.202Z,55.21
2018-08-06T01:53:42.462Z,55.30
2018-08-06T01:56:11.721Z,55.48
2018-08-06T01:58:41.218Z,55.48
2018-08-06T02:01:10.739Z,55.37
2018-08-06T02:03:40.098Z,55.48
2018-08-06T02:06:09.220Z,55.14
2018-08-06T02:08:38.521Z,55.10
2018-08-06T02:11:08.057Z,55.56
2018-08-06T02:13:37.288Z,55.58
2018-08-06T02:16:06.535Z,54.86
2018-08-06T02:18:35.916Z,56.25
2018-08-06T02:21:06.193Z,56.01
2018-08-06T02:23:35.484Z,56.38
2018-08-06T02:26:05.290Z,55.63
2018-08-06T02:28:34.674Z,55.67
2018-08-06T02:31:04.506Z,56.08
2018-08-06T02:33:33.688Z,55.94
2018-08-06T02:36:03.022Z,56.04
2018-08-06T02:38:32.163Z,56.69
2018-08-06T02:41:01.445Z,56.49
2018-08-06T02:43:30.704Z,56.83
2018-08-06T02:46:00.671Z,56.62
2018-08-06T02:48:30.014Z,56.56
2018-08-06T02:50:59.787Z,56.76
2018-08-06T02:53:33.971Z,57.35
2018-08-06T02:56:03.816Z,57.40
2018-08-06T02:58:33.079Z,57.24
2018-08-06T03:01:02.397Z,56.89
2018-08-06T03:03:31.708Z,57.65
2018-08-06T03:06:01.719Z,57.38
2018-08-06T03:08:31.142Z,58.22
2018-08-06T03:11:00.065Z,57.29
2018-08-06T03:13:29.661Z,57.74
2018-08-06T03:15:59.507Z,57.92
2018-08-06T03:18:28.903Z,57.79
2018-08-06T03:20:58.371Z,58.50
2018-08-06T03:23:27.787Z,58.54
2018-08-06T03:25:57.204Z,58.75
2018-08-06T03:28:26.728Z,58.37
2018-08-06T03:30:57.788Z,59.18
2018-08-06T03:33:27.113Z,58.78
2018-08-06T03:35:56.483Z,58.48
2018-08-06T03:38:26.392Z,58.32
2018-08-06T03:40:55.840Z,59.09
2018-08-06T03:43:25.085Z,58.03
2018-08-06T03:45:54.368Z,58.82
2018-08-06T03:48:23.703Z,58.61
2018-08-06T03:50:53.287Z,58.71
2018-08-06T03:53:22.977Z,58.53
2018-08-06T03:55:52.380Z,59.28
2018-08-06T03:58:21.733Z,58.84
2018-08-06T04:00:50.922Z,59.02
2018-08-06T04:03:20.303Z,59.27
2018-08-06T04:05:50.254Z,58.69
2018-08-06T04:08:19.760Z,58.59
2018-08-06T04:10:49.244Z,59.23
2018-08-06T04:13:18.845Z,59.27
2018-08-06T04:15:48.654Z,58.46
2018-08-06T04:18:18.176Z,58.38
2018-08-06T04:20:47.909Z,58.62
2018-08-06T04:23:17.353Z,58.57
2018-08-06T04:25:46.681Z,59.13
2018-08-06T04:28:16.045Z,59.24
2018-08-06T04:30:45.732Z,58.62
2018-08-06T04:33:18.093Z,58.54
2018-08-06T04:35:47.606Z,58.69
2018-08-06T04:38:17.154Z,58.76
2018-08-06T04:40:46.798Z,59.02
2018-08-06T04:43:16.336Z,59.64
2018-08-06T04:45:45.915Z,59.59
2018-08-06T04:48:15.646Z,58.74
2018-08-06T04:50:45.046Z,59.37
2018-08-06T04:53:14.531Z,59.08
2018-08-06T04:55:44.158Z,59.30
2018-08-06T04:58:13.531Z,58.67
2018-08-06T05:00:43.248Z,59.17
2018-08-06T05:03:12.610Z,59.06
2018-08-06T05:05:41.922Z,58.93
2018-08-06T05:08:11.829Z,58.46
2018-08-06T05:10:41.486Z,59.45
2018-08-06T05:13:11.160Z,58.53
2018-08-06T05:15:40.878Z,58.99
2018-08-06T05:18:10.344Z,59.26
2018-08-06T05:20:40.967Z,58.45
2018-08-06T05:23:10.324Z,58.39
2018-08-06T05:25:40.759Z,58.47
2018-08-06T05:28:11.797Z,58.35
2018-08-06T05:30:41.459Z,58.18
2018-08-06T05:33:11.540Z,58.35
2018-08-06T05:35:41.412Z,57.32
2018-08-06T05:38:10.437Z,57.15
2018-08-06T05:40:39.856Z,56.99
2018-08-06T05:43:09.846Z,57.48
2018-08-06T05:45:39.364Z,57.29
2018-08-06T05:48:08.916Z,57.10
2018-08-06T05:50:38.503Z,56.71
2018-08-06T05:53:09.355Z,56.49
2018-08-06T05:55:38.999Z,55.92
2018-08-06T05:58:09.041Z,56.02
2018-08-06T06:00:38.835Z,56.58
2018-08-06T06:03:08.451Z,56.16
2018-08-06T06:05:38.301Z,56.15
2018-08-06T06:08:07.890Z,55.66
2018-08-06T06:10:37.423Z,56.32
2018-08-06T06:13:08.449Z,55.33
2018-08-06T06:15:38.540Z,56.34
2018-08-06T06:18:08.339Z,56.32
2018-08-06T06:20:38.038Z,55.76
2018-08-06T06:23:08.706Z,55.51
2018-08-06T06:25:38.378Z,56.01
2018-08-06T06:28:08.457Z,55.77
2018-08-06T15:59:36.073Z,24.76
2018-08-06T16:02:05.813Z,24.52
2018-08-06T16:07:28.841Z,25.33
2018-08-06T16:09:58.348Z,25.19
2018-08-06T16:12:29.053Z,24.46
2018-08-06T16:14:58.717Z,24.66
2018-08-06T16:17:28.074Z,25.58
2018-08-06T16:19:58.389Z,25.55
2018-08-06T16:22:28.910Z,26.10
2018-08-06T16:24:58.339Z,25.16
2018-08-06T16:27:29.808Z,25.59
2018-08-06T16:30:00.133Z,25.40
2018-08-06T16:32:31.184Z,25.43
2018-08-06T16:35:01.248Z,25.08
2018-08-06T16:37:32.872Z,25.53
2018-08-06T16:45:49.790Z,25.38
2018-08-06T16:48:26.077Z,26.28
2018-08-06T16:50:57.749Z,26.96
2018-08-06T16:56:21.719Z,28.11
2018-08-06T17:01:45.721Z,28.14
2018-08-06T17:04:15.968Z,27.04
2018-08-06T17:06:45.676Z,27.41
2018-08-06T17:09:15.832Z,27.40
2018-08-06T17:11:45.980Z,27.76
2018-08-06T17:14:16.206Z,28.11
2018-08-06T17:16:46.392Z,28.22
2018-08-06T17:19:16.357Z,29.27
2018-08-06T17:21:46.013Z,28.88
2018-08-06T17:24:16.080Z,28.60
2018-08-06T17:29:39.472Z,29.70
2018-08-06T17:32:08.905Z,29.93
2018-08-06T17:34:39.016Z,28.94
2018-08-06T17:37:09.620Z,29.55
2018-08-06T17:39:39.597Z,29.07
2018-08-06T17:42:10.054Z,29.95
2018-08-06T17:44:40.880Z,29.90
2018-08-06T17:50:04.369Z,29.74
2018-08-06T17:52:35.384Z,29.73
2018-08-06T17:58:05.563Z,29.42
2018-08-06T18:00:36.983Z,29.33
2018-08-06T18:03:07.011Z,30.43
2018-08-06T18:05:41.716Z,30.52
2018-08-06T18:08:14.718Z,30.98
2018-08-06T18:10:44.596Z,30.67
2018-08-06T18:13:14.244Z,30.65
2018-08-06T18:15:44.426Z,30.34
2018-08-06T18:18:14.659Z,30.91
2018-08-06T18:20:44.045Z,31.18
2018-08-06T18:23:13.955Z,31.42
2018-08-06T18:25:45.152Z,31.70
2018-08-06T18:28:16.193Z,31.57
2018-08-06T18:30:47.702Z,31.48
2018-08-06T18:33:17.742Z,31.89
2018-08-06T18:35:47.679Z,32.05
2018-08-06T18:38:17.318Z,31.92
2018-08-06T18:40:46.965Z,31.95
2018-08-06T18:43:16.633Z,32.08
2018-08-06T18:45:46.527Z,32.82
2018-08-06T18:48:15.973Z,32.88
2018-08-06T18:50:45.422Z,33.25
2018-08-06T18:53:14.960Z,33.19
2018-08-06T18:55:45.002Z,32.60
2018-08-06T18:58:14.983Z,33.81
2018-08-06T19:00:44.993Z,34.49
2018-08-06T19:03:14.877Z,33.65
2018-08-06T19:05:45.208Z,34.28
2018-08-06T19:08:15.423Z,33.66
2018-08-06T19:10:45.205Z,33.18
2018-08-06T19:16:06.126Z,34.17
2018-08-06T19:18:42.467Z,34.96
2018-08-06T19:21:12.529Z,34.60
2018-08-06T19:23:44.143Z,33.84
2018-08-06T19:26:14.002Z,34.72
2018-08-06T19:32:19.331Z,33.95
2018-08-06T19:34:49.047Z,35.33
2018-08-06T19:37:24.019Z,34.90
2018-08-06T19:39:53.244Z,35.11
2018-08-06T19:42:22.750Z,35.46
2018-08-06T19:44:52.184Z,35.39
2018-08-06T19:47:22.598Z,36.39
2018-08-06T19:49:56.992Z,36.70
2018-08-06T19:52:26.809Z,36.64
2018-08-06T19:55:00.247Z,37.89
2018-08-06T19:57:30.188Z,36.21
2018-08-06T19:59:59.654Z,36.88
2018-08-06T20:02:29.566Z,37.61
2018-08-06T20:04:58.975Z,38.54
2018-08-06T20:07:28.369Z,36.07
2018-08-06T20:09:57.815Z,36.46
2018-08-06T20:12:27.109Z,37.33
2018-08-06T20:14:56.832Z,36.96
2018-08-06T20:17:26.227Z,37.11
2018-08-06T20:19:55.789Z,38.32
2018-08-06T20:22:25.822Z,38.12
2018-08-06T20:24:55.487Z,37.68
2018-08-06T20:27:24.721Z,38.53
2018-08-06T20:29:59.724Z,38.63
2018-08-06T20:32:30.601Z,37.52
2018-08-06T20:34:59.801Z,37.51
2018-08-06T20:37:28.970Z,38.85
2018-08-06T20:39:58.393Z,39.00
2018-08-06T20:42:28.602Z,38.48
2018-08-06T20:44:58.608Z,37.92
2018-08-06T20:47:28.010Z,39.15
2018-08-06T20:49:57.171Z,38.61
2018-08-06T20:52:37.771Z,39.20
2018-08-06T20:55:07.971Z,39.23
2018-08-06T20:57:46.053Z,39.38
2018-08-06T21:00:18.221Z,39.18
2018-08-06T21:02:48.379Z,38.68
2018-08-06T21:05:20.916Z,38.43
2018-08-06T21:17:37.082Z,38.73
2018-08-06T21:20:12.475Z,39.88
2018-08-06T21:22:43.141Z,39.54
2018-08-06T21:25:12.779Z,39.64
2018-08-06T21:27:43.268Z,40.23
2018-08-06T21:30:16.050Z,40.51
2018-08-06T21:32:48.200Z,39.56
2018-08-06T21:35:18.208Z,39.87
2018-08-06T21:37:48.763Z,39.87
2018-08-06T21:40:19.128Z,40.84
2018-08-06T21:42:48.845Z,39.97
2018-08-06T21:45:18.320Z,39.96
2018-08-06T21:47:48.099Z,40.57
2018-08-06T21:50:17.541Z,40.30
2018-08-06T21:52:47.116Z,41.02
2018-08-06T21:55:16.618Z,41.24
2018-08-06T21:57:46.237Z,41.17
2018-08-06T22:00:24.009Z,40.89
2018-08-06T22:02:53.278Z,40.22
2018-08-06T22:05:22.602Z,40.54
2018-08-06T22:07:54.698Z,41.23
2018-08-06T22:10:23.921Z,40.62
2018-08-06T22:12:53.286Z,41.30
2018-08-06T22:15:23.096Z,41.29
2018-08-06T22:17:52.513Z,41.66
2018-08-06T22:20:22.000Z,41.80
2018-08-06T22:22:51.627Z,40.97
2018-08-06T22:25:21.267Z,41.05
2018-08-06T22:27:50.758Z,41.76
2018-08-06T22:30:20.345Z,41.62
2018-08-06T22:32:50.011Z,40.98
2018-08-06T22:35:19.166Z,41.06
2018-08-06T22:37:48.748Z,41.44
2018-08-06T22:40:18.287Z,42.18
2018-08-06T22:42:47.896Z,41.18
2018-08-06T22:45:17.347Z,42.09
2018-08-06T22:47:47.071Z,41.64
2018-08-06T22:50:16.357Z,41.29
2018-08-06T22:53:00.973Z,42.33
2018-08-06T22:55:34.692Z,41.89
2018-08-06T22:58:03.984Z,42.04
2018-08-06T23:00:33.496Z,42.01
2018-08-06T23:03:02.865Z,43.18
2018-08-06T23:05:32.182Z,42.33
2018-08-06T23:08:01.646Z,42.86
2018-08-06T23:10:31.015Z,43.07
2018-08-06T23:13:00.285Z,43.39
2018-08-06T23:15:30.321Z,42.65
2018-08-06T23:17:59.694Z,43.08
2018-08-06T23:20:28.938Z,43.51
2018-08-06T23:22:58.332Z,43.67
2018-08-06T23:25:27.715Z,43.19
2018-08-06T23:28:15.463Z,43.47
2018-08-06T23:30:44.696Z,43.60
2018-08-06T23:33:14.022Z,43.52
2018-08-06T23:35:43.408Z,43.17
2018-08-06T23:38:12.705Z,43.90
2018-08-06T23:40:42.000Z,43.26
2018-08-06T23:43:11.416Z,43.31
2018-08-06T23:45:40.718Z,43.32
2018-08-06T23:48:10.294Z,43.35
2018-08-06T23:50:39.666Z,43.93
2018-08-06T23:53:08.831Z,43.22
2018-08-06T23:55:38.244Z,43.57
2018-08-06T23:58:07.912Z,43.18
